sensor_id;sensor_type;location;lat;lon;timestamp;temperature;humidity
68556;HTU21D;55544;51.032;5.866;2023-06-04T00:00:49;17.37;46.51
68556;HTU21D;55544;51.032;5.866;2023-06-04T00:03:15;17.34;46.30
68556;HTU21D;55544;51.032;5.866;2023-06-04T00:05:40;17.37;46.09
68556;HTU21D;55544;51.032;5.866;2023-06-04T00:08:06;17.34;46.25
68556;HTU21D;55544;51.032;5.866;2023-06-04T00:10:32;17.24;46.53
68556;HTU21D;55544;51.032;5.866;2023-06-04T00:12:59;17.17;46.69
68556;HTU21D;55544;51.032;5.866;2023-06-04T00:15:25;17.09;47.10
68556;HTU21D;55544;51.032;5.866;2023-06-04T00:17:51;17.10;47.72
68556;HTU21D;55544;51.032;5.866;2023-06-04T00:20:18;17.17;47.87
68556;HTU21D;55544;51.032;5.866;2023-06-04T00:22:44;17.20;48.28
68556;HTU21D;55544;51.032;5.866;2023-06-04T00:25:10;17.21;49.11
68556;HTU21D;55544;51.032;5.866;2023-06-04T00:27:36;17.19;49.33
68556;HTU21D;55544;51.032;5.866;2023-06-04T00:30:03;17.08;49.44
68556;HTU21D;55544;51.032;5.866;2023-06-04T00:32:29;17.04;49.38
68556;HTU21D;55544;51.032;5.866;2023-06-04T00:34:55;16.93;49.69
68556;HTU21D;55544;51.032;5.866;2023-06-04T00:37:24;16.71;49.97
68556;HTU21D;55544;51.032;5.866;2023-06-04T00:39:50;16.32;50.24
68556;HTU21D;55544;51.032;5.866;2023-06-04T00:42:16;16.02;50.75
68556;HTU21D;55544;51.032;5.866;2023-06-04T00:44:42;15.87;51.19
68556;HTU21D;55544;51.032;5.866;2023-06-04T00:47:13;15.76;51.68
68556;HTU21D;55544;51.032;5.866;2023-06-04T00:49:39;15.84;51.25
68556;HTU21D;55544;51.032;5.866;2023-06-04T00:52:10;15.90;51.14
68556;HTU21D;55544;51.032;5.866;2023-06-04T00:54:37;15.84;51.14
68556;HTU21D;55544;51.032;5.866;2023-06-04T00:57:04;15.89;50.76
68556;HTU21D;55544;51.032;5.866;2023-06-04T00:59:32;15.99;50.38
68556;HTU21D;55544;51.032;5.866;2023-06-04T01:02:34;15.92;50.56
68556;HTU21D;55544;51.032;5.866;2023-06-04T01:05:11;15.93;50.47
68556;HTU21D;55544;51.032;5.866;2023-06-04T01:07:39;15.99;50.19
68556;HTU21D;55544;51.032;5.866;2023-06-04T01:10:07;16.05;49.82
68556;HTU21D;55544;51.032;5.866;2023-06-04T01:12:33;16.08;49.66
68556;HTU21D;55544;51.032;5.866;2023-06-04T01:14:59;15.99;49.98
68556;HTU21D;55544;51.032;5.866;2023-06-04T01:17:35;15.84;50.48
68556;HTU21D;55544;51.032;5.866;2023-06-04T01:20:18;15.68;50.96
68556;HTU21D;55544;51.032;5.866;2023-06-04T01:25:31;15.54;51.68
68556;HTU21D;55544;51.032;5.866;2023-06-04T01:27:57;15.45;51.55
68556;HTU21D;55544;51.032;5.866;2023-06-04T01:30:32;15.38;51.72
68556;HTU21D;55544;51.032;5.866;2023-06-04T01:33:02;15.31;51.77
68556;HTU21D;55544;51.032;5.866;2023-06-04T01:35:29;15.37;51.13
68556;HTU21D;55544;51.032;5.866;2023-06-04T01:37:58;15.49;50.24
68556;HTU21D;55544;51.032;5.866;2023-06-04T01:40:24;15.62;49.00
68556;HTU21D;55544;51.032;5.866;2023-06-04T01:42:52;15.75;48.22
68556;HTU21D;55544;51.032;5.866;2023-06-04T01:45:18;15.84;47.40
68556;HTU21D;55544;51.032;5.866;2023-06-04T01:47:44;15.89;46.70
68556;HTU21D;55544;51.032;5.866;2023-06-04T01:50:10;15.95;46.27
68556;HTU21D;55544;51.032;5.866;2023-06-04T01:52:36;15.98;46.06
68556;HTU21D;55544;51.032;5.866;2023-06-04T01:55:07;16.01;46.03
68556;HTU21D;55544;51.032;5.866;2023-06-04T01:57:35;16.04;45.80
68556;HTU21D;55544;51.032;5.866;2023-06-04T02:00:02;16.06;45.41
68556;HTU21D;55544;51.032;5.866;2023-06-04T02:02:42;16.06;45.31
68556;HTU21D;55544;51.032;5.866;2023-06-04T02:05:09;16.05;45.61
68556;HTU21D;55544;51.032;5.866;2023-06-04T02:07:36;16.04;45.75
68556;HTU21D;55544;51.032;5.866;2023-06-04T02:10:09;16.02;45.63
68556;HTU21D;55544;51.032;5.866;2023-06-04T02:12:37;16.00;45.53
68556;HTU21D;55544;51.032;5.866;2023-06-04T02:15:04;15.97;45.46
68556;HTU21D;55544;51.032;5.866;2023-06-04T02:17:30;15.97;45.45
68556;HTU21D;55544;51.032;5.866;2023-06-04T02:19:59;15.93;45.27
68556;HTU21D;55544;51.032;5.866;2023-06-04T02:22:25;15.92;45.24
68556;HTU21D;55544;51.032;5.866;2023-06-04T02:24:51;15.90;45.36
68556;HTU21D;55544;51.032;5.866;2023-06-04T02:27:17;15.87;45.38
68556;HTU21D;55544;51.032;5.866;2023-06-04T02:29:43;15.85;45.61
68556;HTU21D;55544;51.032;5.866;2023-06-04T02:32:09;15.85;45.66
68556;HTU21D;55544;51.032;5.866;2023-06-04T02:34:35;15.84;45.87
68556;HTU21D;55544;51.032;5.866;2023-06-04T02:37:02;15.82;46.03
68556;HTU21D;55544;51.032;5.866;2023-06-04T02:39:28;15.81;46.02
68556;HTU21D;55544;51.032;5.866;2023-06-04T02:41:54;15.77;46.06
68556;HTU21D;55544;51.032;5.866;2023-06-04T02:44:20;15.72;46.41
68556;HTU21D;55544;51.032;5.866;2023-06-04T02:46:45;15.67;46.59
68556;HTU21D;55544;51.032;5.866;2023-06-04T02:49:11;15.65;46.65
68556;HTU21D;55544;51.032;5.866;2023-06-04T02:51:45;15.62;46.86
68556;HTU21D;55544;51.032;5.866;2023-06-04T02:54:11;15.61;46.85
68556;HTU21D;55544;51.032;5.866;2023-06-04T02:56:37;15.56;47.05
68556;HTU21D;55544;51.032;5.866;2023-06-04T02:59:03;15.49;47.25
68556;HTU21D;55544;51.032;5.866;2023-06-04T03:01:29;15.43;47.56
68556;HTU21D;55544;51.032;5.866;2023-06-04T03:03:56;15.40;47.81
68556;HTU21D;55544;51.032;5.866;2023-06-04T03:06:29;15.40;47.93
68556;HTU21D;55544;51.032;5.866;2023-06-04T03:08:55;15.39;47.93
68556;HTU21D;55544;51.032;5.866;2023-06-04T03:11:22;15.37;48.26
68556;HTU21D;55544;51.032;5.866;2023-06-04T03:13:48;15.36;48.44
68556;HTU21D;55544;51.032;5.866;2023-06-04T03:16:15;15.33;48.57
68556;HTU21D;55544;51.032;5.866;2023-06-04T03:18:42;15.30;48.67
68556;HTU21D;55544;51.032;5.866;2023-06-04T03:21:08;15.28;48.95
68556;HTU21D;55544;51.032;5.866;2023-06-04T03:23:38;15.24;49.13
68556;HTU21D;55544;51.032;5.866;2023-06-04T03:26:04;15.16;49.30
68556;HTU21D;55544;51.032;5.866;2023-06-04T03:28:31;15.09;49.50
68556;HTU21D;55544;51.032;5.866;2023-06-04T03:30:59;15.04;49.69
68556;HTU21D;55544;51.032;5.866;2023-06-04T03:33:25;14.97;49.93
68556;HTU21D;55544;51.032;5.866;2023-06-04T03:35:52;14.97;50.01
68556;HTU21D;55544;51.032;5.866;2023-06-04T03:38:19;14.94;50.21
68556;HTU21D;55544;51.032;5.866;2023-06-04T03:40:46;14.94;50.31
68556;HTU21D;55544;51.032;5.866;2023-06-04T03:43:12;14.95;50.48
68556;HTU21D;55544;51.032;5.866;2023-06-04T03:45:39;14.94;50.61
68556;HTU21D;55544;51.032;5.866;2023-06-04T03:48:05;14.88;50.88
68556;HTU21D;55544;51.032;5.866;2023-06-04T03:50:33;14.87;51.07
68556;HTU21D;55544;51.032;5.866;2023-06-04T03:53:00;14.86;51.19
68556;HTU21D;55544;51.032;5.866;2023-06-04T03:55:27;14.82;51.54
68556;HTU21D;55544;51.032;5.866;2023-06-04T03:57:53;14.81;51.83
68556;HTU21D;55544;51.032;5.866;2023-06-04T04:00:19;14.82;51.97
68556;HTU21D;55544;51.032;5.866;2023-06-04T04:02:49;14.78;52.08
68556;HTU21D;55544;51.032;5.866;2023-06-04T04:05:21;14.66;52.56
68556;HTU21D;55544;51.032;5.866;2023-06-04T04:07:48;14.59;52.98
68556;HTU21D;55544;51.032;5.866;2023-06-04T04:10:15;14.60;53.16
68556;HTU21D;55544;51.032;5.866;2023-06-04T04:12:41;14.62;53.31
68556;HTU21D;55544;51.032;5.866;2023-06-04T04:15:07;14.67;53.36
68556;HTU21D;55544;51.032;5.866;2023-06-04T04:17:34;14.70;53.50
68556;HTU21D;55544;51.032;5.866;2023-06-04T04:20:00;14.70;53.58
68556;HTU21D;55544;51.032;5.866;2023-06-04T04:22:27;14.74;53.84
68556;HTU21D;55544;51.032;5.866;2023-06-04T04:24:52;14.77;53.78
68556;HTU21D;55544;51.032;5.866;2023-06-04T04:27:18;14.79;53.88
68556;HTU21D;55544;51.032;5.866;2023-06-04T04:29:44;14.80;53.91
68556;HTU21D;55544;51.032;5.866;2023-06-04T04:32:13;14.81;54.00
68556;HTU21D;55544;51.032;5.866;2023-06-04T04:34:54;14.82;54.22
68556;HTU21D;55544;51.032;5.866;2023-06-04T04:37:25;14.82;54.33
68556;HTU21D;55544;51.032;5.866;2023-06-04T04:39:54;14.77;54.64
68556;HTU21D;55544;51.032;5.866;2023-06-04T04:42:22;14.73;54.92
68556;HTU21D;55544;51.032;5.866;2023-06-04T04:44:49;14.70;55.16
68556;HTU21D;55544;51.032;5.866;2023-06-04T04:47:16;14.69;55.42
68556;HTU21D;55544;51.032;5.866;2023-06-04T04:49:42;14.73;55.56
68556;HTU21D;55544;51.032;5.866;2023-06-04T04:52:08;14.79;55.53
68556;HTU21D;55544;51.032;5.866;2023-06-04T04:54:36;14.84;55.53
68556;HTU21D;55544;51.032;5.866;2023-06-04T04:57:02;14.87;55.55
68556;HTU21D;55544;51.032;5.866;2023-06-04T04:59:28;14.91;55.57
68556;HTU21D;55544;51.032;5.866;2023-06-04T05:01:55;14.96;55.61
68556;HTU21D;55544;51.032;5.866;2023-06-04T05:04:21;14.98;55.62
68556;HTU21D;55544;51.032;5.866;2023-06-04T05:06:47;15.00;55.83
68556;HTU21D;55544;51.032;5.866;2023-06-04T05:09:13;15.02;55.82
68556;HTU21D;55544;51.032;5.866;2023-06-04T05:11:38;15.07;55.88
68556;HTU21D;55544;51.032;5.866;2023-06-04T05:14:04;15.08;55.90
68556;HTU21D;55544;51.032;5.866;2023-06-04T05:16:31;15.10;55.92
68556;HTU21D;55544;51.032;5.866;2023-06-04T05:18:57;15.15;56.03
68556;HTU21D;55544;51.032;5.866;2023-06-04T05:21:27;15.19;55.95
68556;HTU21D;55544;51.032;5.866;2023-06-04T05:23:59;15.22;55.91
68556;HTU21D;55544;51.032;5.866;2023-06-04T05:26:29;15.26;55.99
68556;HTU21D;55544;51.032;5.866;2023-06-04T05:28:59;15.30;56.10
68556;HTU21D;55544;51.032;5.866;2023-06-04T05:31:26;15.34;55.97
68556;HTU21D;55544;51.032;5.866;2023-06-04T05:33:54;15.40;55.97
68556;HTU21D;55544;51.032;5.866;2023-06-04T05:36:21;15.43;56.00
68556;HTU21D;55544;51.032;5.866;2023-06-04T05:38:53;15.46;56.01
68556;HTU21D;55544;51.032;5.866;2023-06-04T05:41:32;15.49;56.16
68556;HTU21D;55544;51.032;5.866;2023-06-04T05:43:59;15.52;56.33
68556;HTU21D;55544;51.032;5.866;2023-06-04T05:46:26;15.54;56.38
68556;HTU21D;55544;51.032;5.866;2023-06-04T05:48:52;15.59;56.47
68556;HTU21D;55544;51.032;5.866;2023-06-04T05:51:20;15.65;56.48
68556;HTU21D;55544;51.032;5.866;2023-06-04T05:53:46;15.66;56.51
68556;HTU21D;55544;51.032;5.866;2023-06-04T05:56:13;15.67;56.60
68556;HTU21D;55544;51.032;5.866;2023-06-04T05:58:39;15.72;56.63
68556;HTU21D;55544;51.032;5.866;2023-06-04T06:01:06;15.78;56.50
68556;HTU21D;55544;51.032;5.866;2023-06-04T06:03:32;15.84;56.51
68556;HTU21D;55544;51.032;5.866;2023-06-04T06:05:57;15.92;56.44
68556;HTU21D;55544;51.032;5.866;2023-06-04T06:08:25;15.97;55.92
68556;HTU21D;55544;51.032;5.866;2023-06-04T06:10:51;16.04;55.64
68556;HTU21D;55544;51.032;5.866;2023-06-04T06:13:17;16.12;55.57
68556;HTU21D;55544;51.032;5.866;2023-06-04T06:15:43;16.20;55.34
68556;HTU21D;55544;51.032;5.866;2023-06-04T06:18:09;16.30;55.41
68556;HTU21D;55544;51.032;5.866;2023-06-04T06:20:34;16.39;55.06
68556;HTU21D;55544;51.032;5.866;2023-06-04T06:23:07;16.50;54.77
68556;HTU21D;55544;51.032;5.866;2023-06-04T06:25:35;16.59;54.39
68556;HTU21D;55544;51.032;5.866;2023-06-04T06:28:09;16.69;54.49
68556;HTU21D;55544;51.032;5.866;2023-06-04T06:30:36;16.78;54.21
68556;HTU21D;55544;51.032;5.866;2023-06-04T06:33:02;16.90;53.95
68556;HTU21D;55544;51.032;5.866;2023-06-04T06:35:27;16.99;53.78
68556;HTU21D;55544;51.032;5.866;2023-06-04T06:37:53;17.07;53.38
68556;HTU21D;55544;51.032;5.866;2023-06-04T06:40:19;17.18;53.23
68556;HTU21D;55544;51.032;5.866;2023-06-04T06:42:49;17.31;53.29
68556;HTU21D;55544;51.032;5.866;2023-06-04T06:45:20;17.39;52.68
68556;HTU21D;55544;51.032;5.866;2023-06-04T06:47:46;17.49;52.03
68556;HTU21D;55544;51.032;5.866;2023-06-04T06:50:11;17.55;51.62
68556;HTU21D;55544;51.032;5.866;2023-06-04T06:52:38;17.64;51.85
68556;HTU21D;55544;51.032;5.866;2023-06-04T06:55:04;17.75;51.66
68556;HTU21D;55544;51.032;5.866;2023-06-04T06:57:30;17.89;51.13
68556;HTU21D;55544;51.032;5.866;2023-06-04T06:59:56;17.97;49.81
68556;HTU21D;55544;51.032;5.866;2023-06-04T07:02:22;18.07;49.72
68556;HTU21D;55544;51.032;5.866;2023-06-04T07:04:48;18.23;49.40
68556;HTU21D;55544;51.032;5.866;2023-06-04T07:07:14;18.37;48.77
68556;HTU21D;55544;51.032;5.866;2023-06-04T07:09:39;18.54;48.30
68556;HTU21D;55544;51.032;5.866;2023-06-04T07:12:05;18.69;47.30
68556;HTU21D;55544;51.032;5.866;2023-06-04T07:14:32;18.82;46.80
68556;HTU21D;55544;51.032;5.866;2023-06-04T07:16:57;18.93;47.04
68556;HTU21D;55544;51.032;5.866;2023-06-04T07:19:23;19.09;46.67
68556;HTU21D;55544;51.032;5.866;2023-06-04T07:21:50;19.25;46.53
68556;HTU21D;55544;51.032;5.866;2023-06-04T07:24:15;19.45;46.55
68556;HTU21D;55544;51.032;5.866;2023-06-04T07:26:41;19.62;45.50
68556;HTU21D;55544;51.032;5.866;2023-06-04T07:29:07;19.76;44.84
68556;HTU21D;55544;51.032;5.866;2023-06-04T07:31:33;19.96;44.88
68556;HTU21D;55544;51.032;5.866;2023-06-04T07:33:58;20.13;44.36
68556;HTU21D;55544;51.032;5.866;2023-06-04T07:36:24;20.27;43.97
68556;HTU21D;55544;51.032;5.866;2023-06-04T07:38:50;20.42;43.59
68556;HTU21D;55544;51.032;5.866;2023-06-04T07:41:15;20.58;43.29
68556;HTU21D;55544;51.032;5.866;2023-06-04T07:43:42;20.78;42.72
68556;HTU21D;55544;51.032;5.866;2023-06-04T07:46:08;20.96;43.03
68556;HTU21D;55544;51.032;5.866;2023-06-04T07:48:35;21.10;41.68
68556;HTU21D;55544;51.032;5.866;2023-06-04T07:51:02;21.24;41.25
68556;HTU21D;55544;51.032;5.866;2023-06-04T07:53:29;21.42;40.46
68556;HTU21D;55544;51.032;5.866;2023-06-04T07:55:56;21.58;40.17
68556;HTU21D;55544;51.032;5.866;2023-06-04T07:58:22;21.70;39.85
68556;HTU21D;55544;51.032;5.866;2023-06-04T08:00:48;21.84;39.86
68556;HTU21D;55544;51.032;5.866;2023-06-04T08:03:14;21.96;39.55
68556;HTU21D;55544;51.032;5.866;2023-06-04T08:05:41;22.09;39.11
68556;HTU21D;55544;51.032;5.866;2023-06-04T08:08:06;22.21;38.69
68556;HTU21D;55544;51.032;5.866;2023-06-04T08:10:32;22.34;38.14
68556;HTU21D;55544;51.032;5.866;2023-06-04T08:12:58;22.47;37.91
68556;HTU21D;55544;51.032;5.866;2023-06-04T08:15:24;22.58;37.54
68556;HTU21D;55544;51.032;5.866;2023-06-04T08:17:50;22.69;36.59
68556;HTU21D;55544;51.032;5.866;2023-06-04T08:20:16;22.81;36.30
68556;HTU21D;55544;51.032;5.866;2023-06-04T08:22:41;22.95;36.48
68556;HTU21D;55544;51.032;5.866;2023-06-04T08:25:07;23.10;35.86
68556;HTU21D;55544;51.032;5.866;2023-06-04T08:27:35;23.22;34.98
68556;HTU21D;55544;51.032;5.866;2023-06-04T08:30:00;23.36;35.47
68556;HTU21D;55544;51.032;5.866;2023-06-04T08:32:27;23.51;34.79
68556;HTU21D;55544;51.032;5.866;2023-06-04T08:34:54;23.61;34.79
68556;HTU21D;55544;51.032;5.866;2023-06-04T08:37:20;23.74;34.72
68556;HTU21D;55544;51.032;5.866;2023-06-04T08:39:46;23.85;34.50
68556;HTU21D;55544;51.032;5.866;2023-06-04T08:42:22;23.99;34.60
68556;HTU21D;55544;51.032;5.866;2023-06-04T08:44:50;24.03;34.35
68556;HTU21D;55544;51.032;5.866;2023-06-04T08:47:20;24.09;34.09
68556;HTU21D;55544;51.032;5.866;2023-06-04T08:49:50;24.18;33.25
68556;HTU21D;55544;51.032;5.866;2023-06-04T08:52:16;24.35;32.96
68556;HTU21D;55544;51.032;5.866;2023-06-04T08:54:42;24.47;32.27
68556;HTU21D;55544;51.032;5.866;2023-06-04T08:57:09;24.57;32.76
68556;HTU21D;55544;51.032;5.866;2023-06-04T08:59:35;24.68;32.23
68556;HTU21D;55544;51.032;5.866;2023-06-04T09:02:02;24.79;31.97
68556;HTU21D;55544;51.032;5.866;2023-06-04T09:04:29;24.94;33.13
68556;HTU21D;55544;51.032;5.866;2023-06-04T09:07:01;25.06;32.07
68556;HTU21D;55544;51.032;5.866;2023-06-04T09:09:27;25.14;30.94
68556;HTU21D;55544;51.032;5.866;2023-06-04T09:11:56;25.27;31.83
68556;HTU21D;55544;51.032;5.866;2023-06-04T09:14:23;25.43;31.42
68556;HTU21D;55544;51.032;5.866;2023-06-04T09:16:50;25.59;31.48
68556;HTU21D;55544;51.032;5.866;2023-06-04T09:19:17;25.67;30.62
68556;HTU21D;55544;51.032;5.866;2023-06-04T09:21:57;25.76;30.29
68556;HTU21D;55544;51.032;5.866;2023-06-04T09:24:26;25.81;29.61
68556;HTU21D;55544;51.032;5.866;2023-06-04T09:27:13;25.84;29.42
68556;HTU21D;55544;51.032;5.866;2023-06-04T09:29:40;25.93;29.71
68556;HTU21D;55544;51.032;5.866;2023-06-04T09:32:05;26.11;29.64
68556;HTU21D;55544;51.032;5.866;2023-06-04T09:34:31;26.25;29.39
68556;HTU21D;55544;51.032;5.866;2023-06-04T09:36:58;26.37;28.70
68556;HTU21D;55544;51.032;5.866;2023-06-04T09:39:24;26.46;28.08
68556;HTU21D;55544;51.032;5.866;2023-06-04T09:42:01;26.50;28.02
68556;HTU21D;55544;51.032;5.866;2023-06-04T09:44:29;26.53;27.75
68556;HTU21D;55544;51.032;5.866;2023-06-04T09:46:56;26.62;27.68
68556;HTU21D;55544;51.032;5.866;2023-06-04T09:49:22;26.71;27.57
68556;HTU21D;55544;51.032;5.866;2023-06-04T09:51:48;26.77;27.12
68556;HTU21D;55544;51.032;5.866;2023-06-04T09:54:14;26.85;27.19
68556;HTU21D;55544;51.032;5.866;2023-06-04T09:56:41;26.94;27.35
68556;HTU21D;55544;51.032;5.866;2023-06-04T09:59:09;26.99;27.00
68556;HTU21D;55544;51.032;5.866;2023-06-04T10:01:39;27.04;27.36
68556;HTU21D;55544;51.032;5.866;2023-06-04T10:04:08;27.07;26.75
68556;HTU21D;55544;51.032;5.866;2023-06-04T10:06:35;27.14;26.33
68556;HTU21D;55544;51.032;5.866;2023-06-04T10:09:06;27.14;26.56
68556;HTU21D;55544;51.032;5.866;2023-06-04T10:11:56;27.29;26.68
68556;HTU21D;55544;51.032;5.866;2023-06-04T10:14:27;27.30;25.90
68556;HTU21D;55544;51.032;5.866;2023-06-04T10:16:57;27.39;26.60
68556;HTU21D;55544;51.032;5.866;2023-06-04T10:19:24;27.43;24.62
68556;HTU21D;55544;51.032;5.866;2023-06-04T10:21:50;27.49;25.16
68556;HTU21D;55544;51.032;5.866;2023-06-04T10:24:18;27.74;24.56
68556;HTU21D;55544;51.032;5.866;2023-06-04T10:26:47;27.69;24.95
68556;HTU21D;55544;51.032;5.866;2023-06-04T10:29:14;27.75;24.80
68556;HTU21D;55544;51.032;5.866;2023-06-04T10:31:40;27.97;24.40
68556;HTU21D;55544;51.032;5.866;2023-06-04T10:34:07;28.13;24.08
68556;HTU21D;55544;51.032;5.866;2023-06-04T10:36:45;28.38;23.80
68556;HTU21D;55544;51.032;5.866;2023-06-04T10:39:11;28.58;23.91
68556;HTU21D;55544;51.032;5.866;2023-06-04T10:41:37;28.79;24.46
68556;HTU21D;55544;51.032;5.866;2023-06-04T10:44:03;29.00;23.99
68556;HTU21D;55544;51.032;5.866;2023-06-04T10:46:40;29.23;23.69
68556;HTU21D;55544;51.032;5.866;2023-06-04T10:49:08;29.34;23.06
68556;HTU21D;55544;51.032;5.866;2023-06-04T10:51:35;29.36;22.47
68556;HTU21D;55544;51.032;5.866;2023-06-04T10:54:03;29.41;20.61
68556;HTU21D;55544;51.032;5.866;2023-06-04T10:56:34;29.41;20.60
68556;HTU21D;55544;51.032;5.866;2023-06-04T10:59:14;28.93;21.56
68556;HTU21D;55544;51.032;5.866;2023-06-04T11:01:41;28.63;21.37
68556;HTU21D;55544;51.032;5.866;2023-06-04T11:04:06;28.53;21.45
68556;HTU21D;55544;51.032;5.866;2023-06-04T11:06:32;28.61;21.69
68556;HTU21D;55544;51.032;5.866;2023-06-04T11:09:05;28.88;22.05
68556;HTU21D;55544;51.032;5.866;2023-06-04T11:11:32;29.19;20.95
68556;HTU21D;55544;51.032;5.866;2023-06-04T11:14:11;29.41;20.67
68556;HTU21D;55544;51.032;5.866;2023-06-04T11:16:41;29.27;19.89
68556;HTU21D;55544;51.032;5.866;2023-06-04T11:19:07;29.27;20.68
68556;HTU21D;55544;51.032;5.866;2023-06-04T11:21:36;29.57;21.18
68556;HTU21D;55544;51.032;5.866;2023-06-04T11:24:04;29.91;20.37
68556;HTU21D;55544;51.032;5.866;2023-06-04T11:26:35;29.94;20.50
68556;HTU21D;55544;51.032;5.866;2023-06-04T11:29:05;30.01;20.90
68556;HTU21D;55544;51.032;5.866;2023-06-04T11:31:41;30.17;20.31
68556;HTU21D;55544;51.032;5.866;2023-06-04T11:34:08;30.35;20.58
68556;HTU21D;55544;51.032;5.866;2023-06-04T11:36:34;30.56;19.31
68556;HTU21D;55544;51.032;5.866;2023-06-04T11:39:02;30.78;19.35
68556;HTU21D;55544;51.032;5.866;2023-06-04T11:41:31;30.99;19.01
68556;HTU21D;55544;51.032;5.866;2023-06-04T11:44:01;30.93;18.19
68556;HTU21D;55544;51.032;5.866;2023-06-04T11:46:27;30.84;19.27
68556;HTU21D;55544;51.032;5.866;2023-06-04T11:48:53;30.95;18.98
68556;HTU21D;55544;51.032;5.866;2023-06-04T11:51:20;31.06;18.05
68556;HTU21D;55544;51.032;5.866;2023-06-04T11:53:47;31.26;18.44
68556;HTU21D;55544;51.032;5.866;2023-06-04T11:56:13;31.54;18.56
68556;HTU21D;55544;51.032;5.866;2023-06-04T11:58:40;31.79;17.99
68556;HTU21D;55544;51.032;5.866;2023-06-04T12:01:07;31.97;17.26
68556;HTU21D;55544;51.032;5.866;2023-06-04T12:03:38;32.03;16.71
68556;HTU21D;55544;51.032;5.866;2023-06-04T12:06:15;32.11;16.13
68556;HTU21D;55544;51.032;5.866;2023-06-04T12:08:59;32.14;15.74
68556;HTU21D;55544;51.032;5.866;2023-06-04T12:11:31;32.07;16.37
68556;HTU21D;55544;51.032;5.866;2023-06-04T12:13:59;32.11;17.57
68556;HTU21D;55544;51.032;5.866;2023-06-04T12:16:26;32.25;17.51
68556;HTU21D;55544;51.032;5.866;2023-06-04T12:18:52;32.34;16.96
68556;HTU21D;55544;51.032;5.866;2023-06-04T12:21:23;32.44;17.07
68556;HTU21D;55544;51.032;5.866;2023-06-04T12:24:13;32.73;16.38
68556;HTU21D;55544;51.032;5.866;2023-06-04T12:26:40;32.83;15.78
68556;HTU21D;55544;51.032;5.866;2023-06-04T12:29:11;32.90;15.68
68556;HTU21D;55544;51.032;5.866;2023-06-04T12:31:39;33.03;16.69
68556;HTU21D;55544;51.032;5.866;2023-06-04T12:34:05;33.17;15.93
68556;HTU21D;55544;51.032;5.866;2023-06-04T12:36:31;33.23;14.86
68556;HTU21D;55544;51.032;5.866;2023-06-04T12:39:00;33.26;14.92
68556;HTU21D;55544;51.032;5.866;2023-06-04T12:41:27;33.28;14.68
68556;HTU21D;55544;51.032;5.866;2023-06-04T12:43:54;33.40;14.22
68556;HTU21D;55544;51.032;5.866;2023-06-04T12:46:21;33.41;13.71
68556;HTU21D;55544;51.032;5.866;2023-06-04T12:48:48;33.40;14.60
68556;HTU21D;55544;51.032;5.866;2023-06-04T12:51:14;33.55;14.38
68556;HTU21D;55544;51.032;5.866;2023-06-04T12:53:40;33.65;14.32
68556;HTU21D;55544;51.032;5.866;2023-06-04T12:56:06;33.78;14.44
68556;HTU21D;55544;51.032;5.866;2023-06-04T12:58:32;33.95;14.13
68556;HTU21D;55544;51.032;5.866;2023-06-04T13:00:58;34.19;14.52
68556;HTU21D;55544;51.032;5.866;2023-06-04T13:03:23;34.42;14.64
68556;HTU21D;55544;51.032;5.866;2023-06-04T13:05:49;34.56;13.81
68556;HTU21D;55544;51.032;5.866;2023-06-04T13:08:17;34.54;13.60
68556;HTU21D;55544;51.032;5.866;2023-06-04T13:10:42;34.38;13.45
68556;HTU21D;55544;51.032;5.866;2023-06-04T13:13:08;34.27;14.00
68556;HTU21D;55544;51.032;5.866;2023-06-04T13:15:34;34.16;14.17
68556;HTU21D;55544;51.032;5.866;2023-06-04T13:18:00;34.18;14.10
68556;HTU21D;55544;51.032;5.866;2023-06-04T13:20:25;34.26;13.82
68556;HTU21D;55544;51.032;5.866;2023-06-04T13:22:51;34.31;13.79
68556;HTU21D;55544;51.032;5.866;2023-06-04T13:25:17;34.35;13.65
68556;HTU21D;55544;51.032;5.866;2023-06-04T13:27:44;34.41;13.73
68556;HTU21D;55544;51.032;5.866;2023-06-04T13:30:10;34.35;13.12
68556;HTU21D;55544;51.032;5.866;2023-06-04T13:32:36;34.39;12.88
68556;HTU21D;55544;51.032;5.866;2023-06-04T13:35:02;34.47;12.82
68556;HTU21D;55544;51.032;5.866;2023-06-04T13:37:28;34.54;10.51
68556;HTU21D;55544;51.032;5.866;2023-06-04T13:39:53;34.49;12.36
68556;HTU21D;55544;51.032;5.866;2023-06-04T13:42:19;34.30;12.83
68556;HTU21D;55544;51.032;5.866;2023-06-04T13:44:45;34.36;13.52
68556;HTU21D;55544;51.032;5.866;2023-06-04T13:47:10;34.54;13.03
68556;HTU21D;55544;51.032;5.866;2023-06-04T13:49:36;34.70;12.75
68556;HTU21D;55544;51.032;5.866;2023-06-04T13:52:02;34.68;13.29
68556;HTU21D;55544;51.032;5.866;2023-06-04T13:54:27;34.69;12.17
68556;HTU21D;55544;51.032;5.866;2023-06-04T13:56:53;34.66;12.68
68556;HTU21D;55544;51.032;5.866;2023-06-04T13:59:19;34.66;12.34
68556;HTU21D;55544;51.032;5.866;2023-06-04T14:01:45;34.50;12.61
68556;HTU21D;55544;51.032;5.866;2023-06-04T14:04:10;34.44;12.87
68556;HTU21D;55544;51.032;5.866;2023-06-04T14:06:37;34.35;12.91
68556;HTU21D;55544;51.032;5.866;2023-06-04T14:09:04;34.37;12.70
68556;HTU21D;55544;51.032;5.866;2023-06-04T14:11:32;34.53;12.57
68556;HTU21D;55544;51.032;5.866;2023-06-04T14:13:58;34.71;12.26
68556;HTU21D;55544;51.032;5.866;2023-06-04T14:16:24;34.85;12.32
68556;HTU21D;55544;51.032;5.866;2023-06-04T14:18:50;35.01;12.39
68556;HTU21D;55544;51.032;5.866;2023-06-04T14:21:16;35.03;12.07
68556;HTU21D;55544;51.032;5.866;2023-06-04T14:23:41;34.97;11.85
68556;HTU21D;55544;51.032;5.866;2023-06-04T14:26:07;34.98;11.68
68556;HTU21D;55544;51.032;5.866;2023-06-04T14:28:33;35.00;11.43
68556;HTU21D;55544;51.032;5.866;2023-06-04T14:30:58;35.07;11.52
68556;HTU21D;55544;51.032;5.866;2023-06-04T14:33:24;35.12;11.88
68556;HTU21D;55544;51.032;5.866;2023-06-04T14:35:50;35.11;11.87
68556;HTU21D;55544;51.032;5.866;2023-06-04T14:38:16;35.14;11.88
68556;HTU21D;55544;51.032;5.866;2023-06-04T14:40:42;35.09;12.34
68556;HTU21D;55544;51.032;5.866;2023-06-04T14:43:11;35.09;12.74
68556;HTU21D;55544;51.032;5.866;2023-06-04T14:45:37;35.12;11.88
68556;HTU21D;55544;51.032;5.866;2023-06-04T14:48:05;35.16;12.04
68556;HTU21D;55544;51.032;5.866;2023-06-04T14:50:31;35.11;12.03
68556;HTU21D;55544;51.032;5.866;2023-06-04T14:52:57;35.09;11.99
68556;HTU21D;55544;51.032;5.866;2023-06-04T14:55:24;34.97;12.78
68556;HTU21D;55544;51.032;5.866;2023-06-04T14:57:50;34.84;12.94
68556;HTU21D;55544;51.032;5.866;2023-06-04T15:00:16;34.80;13.06
68556;HTU21D;55544;51.032;5.866;2023-06-04T15:02:42;34.82;13.23
68556;HTU21D;55544;51.032;5.866;2023-06-04T15:05:08;34.63;13.14
68556;HTU21D;55544;51.032;5.866;2023-06-04T15:07:33;34.45;13.12
68556;HTU21D;55544;51.032;5.866;2023-06-04T15:09:59;34.39;13.11
68556;HTU21D;55544;51.032;5.866;2023-06-04T15:12:27;34.37;13.02
68556;HTU21D;55544;51.032;5.866;2023-06-04T15:14:53;34.39;12.71
68556;HTU21D;55544;51.032;5.866;2023-06-04T15:17:19;34.49;12.61
68556;HTU21D;55544;51.032;5.866;2023-06-04T15:19:45;34.63;12.55